Time;durP1;ratioP1;P1;durP2;ratioP2;P2;SDS_P1;SDS_P2;PMS_P1;PMS_P2;Temp;Humidity;BMP_temperature;BMP_pressure;BME280_temperature;BME280_humidity;BME280_pressure;Samples;Min_cycle;Max_cycle;Signal;HPM_P1;HPM_P2
2022/09/28 00:01:16;;;;;;;1.25;0.60;;;10.70;99.90;;;;;;5057211;28;20039;-77
2022/09/28 00:03:46;;;;;;;1.08;0.65;;;10.70;99.90;;;;;;5094614;28;20032;-76
2022/09/28 00:06:15;;;;;;;1.98;0.52;;;10.70;99.90;;;;;;5089318;28;20029;-78
2022/09/28 00:08:42;;;;;;;0.63;0.57;;;10.70;99.90;;;;;;5080024;28;20024;-77
2022/09/28 00:11:12;;;;;;;2.00;0.93;;;10.70;99.90;;;;;;5069264;28;20126;-78
2022/09/28 00:13:39;;;;;;;5.95;1.10;;;10.70;99.90;;;;;;5092883;28;20039;-77
2022/09/28 00:16:11;;;;;;;0.65;0.65;;;10.70;99.90;;;;;;5060350;28;20024;-77
2022/09/28 00:18:37;;;;;;;2.53;0.60;;;10.70;99.90;;;;;;5079642;28;20021;-77
2022/09/28 00:21:11;;;;;;;2.22;0.77;;;10.60;99.90;;;;;;5082140;28;20395;-76
2022/09/28 00:26:23;;;;;;;1.15;0.70;;;10.50;99.90;;;;;;5078426;28;20044;-77
2022/09/28 00:28:53;;;;;;;0.90;0.60;;;10.40;99.90;;;;;;5072056;28;20039;-76
2022/09/28 00:31:19;;;;;;;1.25;0.50;;;10.40;99.90;;;;;;5082345;28;20028;-77
2022/09/28 00:33:50;;;;;;;1.50;0.73;;;10.50;99.90;;;;;;5083242;28;20024;-78
2022/09/28 00:36:15;;;;;;;0.47;0.40;;;10.40;99.90;;;;;;5068961;28;20078;-78
2022/09/28 00:38:41;;;;;;;1.80;0.73;;;10.40;99.90;;;;;;5080608;28;20029;-78
2022/09/28 00:41:10;;;;;;;1.33;0.63;;;10.40;99.90;;;;;;5059447;28;20028;-76
2022/09/28 00:43:36;;;;;;;3.28;0.40;;;10.30;99.90;;;;;;5087157;28;20111;-77
2022/09/28 00:46:09;;;;;;;1.30;0.80;;;10.30;99.90;;;;;;5083934;28;20036;-76
2022/09/28 00:48:38;;;;;;;1.17;0.90;;;10.30;99.90;;;;;;5077216;28;20044;-76
2022/09/28 00:51:08;;;;;;;1.80;0.60;;;10.30;99.90;;;;;;5078701;28;20373;-76
2022/09/28 00:53:38;;;;;;;1.75;0.57;;;10.20;99.90;;;;;;5072961;28;20029;-77
2022/09/28 00:56:07;;;;;;;1.52;0.80;;;10.20;99.90;;;;;;5076029;28;20017;-76
2022/09/28 00:58:39;;;;;;;3.88;1.45;;;10.20;99.90;;;;;;5073678;28;20080;-77
2022/09/28 01:01:05;;;;;;;0.70;0.65;;;10.10;99.90;;;;;;5066283;28;20017;-77
2022/09/28 01:03:32;;;;;;;1.83;0.90;;;10.10;99.90;;;;;;5071326;28;20120;-77
2022/09/28 01:06:01;;;;;;;1.90;0.65;;;10.10;99.90;;;;;;5075256;28;20031;-76
2022/09/28 01:08:30;;;;;;;1.88;0.75;;;10.10;99.90;;;;;;5070253;28;20035;-78
2022/09/28 01:10:58;;;;;;;2.72;0.93;;;10.00;99.90;;;;;;5072488;28;20029;-77
2022/09/28 01:13:26;;;;;;;2.00;0.80;;;10.00;99.90;;;;;;5079832;28;20025;-76
2022/09/28 01:16:24;;;;;;;3.17;0.95;;;10.10;99.90;;;;;;5067724;28;20516;-75
2022/09/28 01:19:06;;;;;;;2.83;0.90;;;10.10;99.90;;;;;;5088830;22;20429;-85
2022/09/28 01:21:43;;;;;;;0.93;0.55;;;10.10;99.90;;;;;;5040929;28;20102;-84
2022/09/28 01:24:37;;;;;;;2.28;0.80;;;10.20;99.90;;;;;;5041063;28;20025;-85
2022/09/28 01:27:38;;;;;;;2.10;0.70;;;10.20;99.90;;;;;;5033141;28;20128;-85
2022/09/28 01:30:08;;;;;;;1.45;1.00;;;10.20;99.90;;;;;;5003184;28;20227;-85
2022/09/28 01:32:47;;;;;;;1.52;0.82;;;10.20;99.90;;;;;;5036359;28;20037;-84
2022/09/28 01:35:29;;;;;;;1.52;0.60;;;10.20;99.90;;;;;;5046040;28;20105;-85
2022/09/28 01:38:17;;;;;;;0.85;0.40;;;10.20;99.90;;;;;;5036362;28;20032;-83
2022/09/28 01:40:46;;;;;;;1.02;0.50;;;10.20;99.90;;;;;;5030900;28;20033;-84
2022/09/28 01:43:26;;;;;;;2.60;0.63;;;10.20;99.90;;;;;;5042108;28;20029;-84
2022/09/28 01:45:57;;;;;;;2.88;0.82;;;10.20;99.90;;;;;;5049256;28;20048;-84
2022/09/28 01:48:50;;;;;;;2.13;0.82;;;10.20;99.90;;;;;;5036209;28;20040;-86
2022/09/28 01:51:45;;;;;;;2.33;1.08;;;10.20;99.90;;;;;;5042290;28;20060;-84
2022/09/28 01:54:31;;;;;;;2.75;1.05;;;10.20;99.90;;;;;;5009026;28;20104;-85
2022/09/28 01:57:17;;;;;;;2.42;0.82;;;10.20;99.90;;;;;;5053674;28;20021;-83
2022/09/28 02:00:10;;;;;;;1.58;0.50;;;10.20;99.90;;;;;;5049495;28;20434;-86
2022/09/28 02:03:17;;;;;;;0.40;0.40;;;10.10;99.90;;;;;;5032675;28;20034;-85
2022/09/28 02:06:02;;;;;;;0.70;0.60;;;10.10;99.90;;;;;;5029088;28;20026;-84
2022/09/28 02:08:33;;;;;;;0.52;0.50;;;10.10;99.90;;;;;;5009371;28;20057;-85
2022/09/28 02:11:13;;;;;;;0.68;0.50;;;10.10;99.90;;;;;;5023843;28;20052;-85
2022/09/28 02:14:00;;;;;;;0.70;0.70;;;10.10;99.90;;;;;;5043046;28;20097;-85
2022/09/28 02:16:49;;;;;;;0.55;0.50;;;10.10;99.90;;;;;;5033320;28;20021;-84
2022/09/28 02:19:26;;;;;;;1.05;0.63;;;10.10;99.90;;;;;;5034949;28;20029;-86
2022/09/28 02:21:56;;;;;;;0.80;0.52;;;10.10;99.90;;;;;;5042110;28;20028;-85
2022/09/28 02:24:44;;;;;;;0.98;0.63;;;10.00;99.90;;;;;;5043113;28;20057;-83
2022/09/28 02:27:41;;;;;;;0.75;0.65;;;9.90;99.90;;;;;;5042839;28;20025;-86
2022/09/28 02:30:08;;;;;;;1.20;0.63;;;9.90;99.90;;;;;;5024042;28;20030;-85
2022/09/28 02:32:39;;;;;;;1.40;0.63;;;9.90;99.90;;;;;;5008102;28;20037;-86
2022/09/28 02:35:12;;;;;;;2.35;0.90;;;10.00;99.90;;;;;;5028993;28;20056;-85
2022/09/28 02:37:39;;;;;;;1.55;0.70;;;10.10;99.90;;;;;;5038303;28;20021;-84
2022/09/28 02:40:27;;;;;;;2.10;0.50;;;10.10;99.90;;;;;;5057061;28;20034;-85
2022/09/28 02:43:11;;;;;;;2.63;0.85;;;10.10;99.90;;;;;;5040851;28;20093;-85
2022/09/28 02:46:10;;;;;;;2.50;0.50;;;10.10;99.90;;;;;;5055023;28;20044;-84
2022/09/28 02:49:07;;;;;;;1.02;0.50;;;10.20;99.90;;;;;;5045273;28;20025;-83
2022/09/28 02:51:55;;;;;;;0.90;0.60;;;10.30;99.90;;;;;;5055652;28;20013;-84
2022/09/28 02:54:40;;;;;;;2.15;0.40;;;10.30;99.90;;;;;;5044834;28;20041;-82
2022/09/28 02:57:18;;;;;;;0.57;0.47;;;10.40;99.90;;;;;;5050463;28;20033;-82
2022/09/28 03:00:04;;;;;;;0.88;0.60;;;10.50;99.90;;;;;;5047914;28;20064;-87
2022/09/28 03:02:50;;;;;;;0.80;0.60;;;10.50;99.90;;;;;;5037082;28;20043;-83
2022/09/28 03:05:35;;;;;;;0.98;0.70;;;10.50;99.90;;;;;;5038492;28;20025;-82
2022/09/28 03:08:16;;;;;;;1.65;0.95;;;10.40;99.90;;;;;;5041672;28;20018;-83
2022/09/28 03:10:44;;;;;;;0.63;0.63;;;10.40;99.90;;;;;;5059601;28;20009;-82
2022/09/28 03:13:12;;;;;;;1.50;0.63;;;10.30;99.90;;;;;;5058883;28;20025;-83
2022/09/28 03:15:39;;;;;;;1.77;0.57;;;10.30;99.90;;;;;;5053775;28;20055;-85
2022/09/28 03:18:05;;;;;;;5.80;0.70;;;10.30;99.90;;;;;;5038885;28;20028;-86
2022/09/28 03:20:32;;;;;;;2.03;0.68;;;10.30;99.90;;;;;;5047401;28;20091;-84
2022/09/28 03:22:59;;;;;;;3.33;0.68;;;10.30;99.90;;;;;;5045943;28;20060;-83
2022/09/28 03:25:26;;;;;;;2.30;0.77;;;10.20;99.90;;;;;;5046287;28;20083;-85
2022/09/28 03:27:51;;;;;;;3.05;0.95;;;10.30;99.90;;;;;;5039453;28;20033;-84
2022/09/28 03:30:17;;;;;;;3.17;0.73;;;10.20;99.90;;;;;;5052898;28;20033;-85
2022/09/28 03:32:45;;;;;;;3.00;0.85;;;10.20;99.90;;;;;;5045184;28;20009;-83
2022/09/28 03:35:11;;;;;;;2.17;0.80;;;10.30;99.90;;;;;;5043108;28;20089;-82
2022/09/28 03:37:37;;;;;;;1.65;0.77;;;10.20;99.90;;;;;;5061172;28;20029;-82
2022/09/28 03:40:05;;;;;;;0.50;0.50;;;10.30;99.90;;;;;;5044377;28;20128;-82
2022/09/28 03:42:34;;;;;;;0.60;0.60;;;10.30;99.90;;;;;;5044456;28;20528;-83
2022/09/28 03:45:00;;;;;;;1.42;0.60;;;10.40;99.90;;;;;;5043746;28;20041;-84
2022/09/28 03:47:26;;;;;;;0.60;0.50;;;10.50;99.90;;;;;;5042582;28;20009;-83
2022/09/28 03:49:52;;;;;;;1.90;0.60;;;10.50;99.90;;;;;;5061185;28;20018;-82
2022/09/28 03:52:18;;;;;;;0.85;0.50;;;10.50;99.90;;;;;;5061801;28;20010;-83
2022/09/28 03:54:44;;;;;;;2.85;0.52;;;10.50;99.90;;;;;;5061785;28;20041;-82
2022/09/28 03:57:10;;;;;;;0.68;0.68;;;10.50;99.90;;;;;;5060495;28;20072;-82
2022/09/28 03:59:36;;;;;;;0.90;0.57;;;10.50;99.90;;;;;;5060731;28;20017;-83
2022/09/28 04:02:03;;;;;;;1.42;0.70;;;10.60;99.90;;;;;;5060430;28;20005;-82
2022/09/28 04:04:30;;;;;;;1.30;0.60;;;10.70;99.90;;;;;;5068532;28;20017;-84
2022/09/28 04:06:57;;;;;;;0.80;0.60;;;10.70;99.90;;;;;;5060355;28;20044;-83
2022/09/28 04:09:24;;;;;;;0.60;0.60;;;10.80;99.90;;;;;;5048304;28;20080;-82
2022/09/28 04:11:49;;;;;;;1.13;0.60;;;10.80;99.90;;;;;;5026579;28;20021;-82
2022/09/28 04:14:16;;;;;;;0.80;0.68;;;10.80;99.90;;;;;;5043366;28;20031;-81
2022/09/28 04:16:42;;;;;;;0.65;0.50;;;10.80;99.90;;;;;;5042836;28;20010;-82
2022/09/28 04:19:10;;;;;;;2.42;0.65;;;10.80;99.90;;;;;;5043020;28;20037;-82
2022/09/28 04:21:39;;;;;;;2.17;0.70;;;10.70;99.90;;;;;;5049535;28;20022;-83
2022/09/28 04:24:11;;;;;;;0.57;0.40;;;10.70;99.90;;;;;;5051999;28;20061;-82
2022/09/28 04:26:37;;;;;;;0.90;0.60;;;10.60;99.90;;;;;;5033029;28;20025;-82
2022/09/28 04:29:17;;;;;;;1.40;0.60;;;10.60;99.90;;;;;;5045947;28;20092;-82
2022/09/28 04:31:56;;;;;;;0.68;0.50;;;10.50;99.90;;;;;;5043229;28;20026;-82
2022/09/28 04:34:32;;;;;;;3.78;0.82;;;10.50;99.90;;;;;;5043253;28;20042;-83
2022/09/28 04:36:59;;;;;;;2.35;0.70;;;10.50;99.90;;;;;;5050004;28;20064;-83
2022/09/28 04:39:28;;;;;;;2.55;0.98;;;10.50;99.90;;;;;;5041859;28;20029;-84
2022/09/28 04:41:55;;;;;;;2.35;0.77;;;10.40;99.90;;;;;;5059686;28;20009;-85
2022/09/28 04:44:21;;;;;;;1.65;0.70;;;10.50;99.90;;;;;;5059158;28;20040;-84
2022/09/28 04:46:55;;;;;;;;;;;10.50;99.90;;;;;;5044291;28;20034;-85
2022/09/28 04:49:27;;;;;;;1.13;0.60;;;10.60;99.90;;;;;;5052416;28;20091;-83
2022/09/28 04:52:06;;;;;;;2.17;0.70;;;10.60;99.90;;;;;;5055802;28;20047;-86
2022/09/28 04:54:33;;;;;;;1.55;0.93;;;10.60;99.90;;;;;;5057810;28;20033;-85
2022/09/28 04:57:00;;;;;;;6.32;0.77;;;10.70;99.90;;;;;;5056628;28;20018;-84
2022/09/28 04:59:29;;;;;;;3.35;0.90;;;10.70;99.90;;;;;;5020445;28;20033;-84
2022/09/28 05:01:55;;;;;;;1.45;1.00;;;10.70;99.90;;;;;;5050895;28;20089;-86
2022/09/28 05:04:21;;;;;;;3.65;1.40;;;10.70;99.90;;;;;;5057047;28;20029;-86
2022/09/28 05:06:56;;;;;;;;;;;10.70;99.90;;;;;;5049694;28;20018;-84
2022/09/28 05:09:26;;;;;;;5.95;1.40;;;10.70;99.90;;;;;;5032137;28;19936;-84
2022/09/28 05:11:52;;;;;;;2.10;1.10;;;10.70;99.90;;;;;;5048341;28;20029;-86
2022/09/28 05:14:23;;;;;;;4.07;1.00;;;10.70;99.90;;;;;;5046208;28;20089;-86
2022/09/28 05:16:50;;;;;;;4.13;1.23;;;10.70;99.90;;;;;;5034008;28;20052;-85
2022/09/28 05:19:25;;;;;;;2.35;1.02;;;10.70;99.90;;;;;;5045320;28;20025;-85
2022/09/28 05:21:56;;;;;;;2.30;1.27;;;10.70;99.90;;;;;;5039667;28;20036;-90
2022/09/28 05:24:23;;;;;;;3.08;1.00;;;10.60;99.90;;;;;;5038350;28;20116;-85
2022/09/28 05:26:50;;;;;;;18.15;8.15;;;10.60;99.90;;;;;;5032722;28;20469;-85
2022/09/28 05:29:16;;;;;;;4.22;2.47;;;10.50;99.90;;;;;;5045968;28;20037;-85
2022/09/28 05:32:01;;;;;;;26.33;11.55;;;10.50;99.90;;;;;;5051965;28;20040;-86
2022/09/28 05:34:47;;;;;;;7.90;2.97;;;10.50;99.90;;;;;;5054653;28;20045;-85
2022/09/28 05:37:19;;;;;;;4.97;1.55;;;10.50;99.90;;;;;;5038411;28;20025;-86
2022/09/28 05:39:46;;;;;;;2.63;1.20;;;10.50;99.90;;;;;;5050566;28;20036;-86
2022/09/28 05:42:12;;;;;;;3.63;1.30;;;10.50;99.90;;;;;;5032249;28;20025;-86
2022/09/28 05:44:37;;;;;;;2.95;1.35;;;10.60;99.90;;;;;;5028437;28;20033;-85
2022/09/28 05:47:06;;;;;;;2.60;1.45;;;10.70;99.90;;;;;;5052991;28;20033;-85
2022/09/28 05:49:32;;;;;;;6.47;1.45;;;10.70;99.90;;;;;;5029685;28;20025;-85
2022/09/28 05:52:00;;;;;;;9.40;1.67;;;10.80;99.90;;;;;;5055845;28;20019;-85
2022/09/28 05:54:25;;;;;;;5.05;2.00;;;10.90;99.90;;;;;;5032141;28;20048;-85
2022/09/28 05:56:51;;;;;;;2.28;1.08;;;11.00;99.90;;;;;;5037385;28;20018;-83
2022/09/28 05:59:17;;;;;;;12.48;6.10;;;11.00;99.90;;;;;;5046330;28;20477;-84
2022/09/28 06:01:43;;;;;;;14.18;5.57;;;11.00;99.90;;;;;;5030463;28;20078;-86
2022/09/28 06:04:10;;;;;;;4.38;1.65;;;11.10;99.90;;;;;;5052167;28;20060;-82
2022/09/28 06:06:37;;;;;;;6.03;1.77;;;11.10;99.90;;;;;;5039311;28;20031;-85
2022/09/28 06:09:03;;;;;;;5.43;1.33;;;11.10;99.90;;;;;;5055684;28;20032;-86
2022/09/28 06:11:30;;;;;;;15.02;1.65;;;11.10;99.90;;;;;;5044928;28;20026;-86
2022/09/28 06:13:58;;;;;;;6.13;1.30;;;11.20;99.90;;;;;;5030072;28;20026;-86
2022/09/28 06:16:29;;;;;;;10.07;1.40;;;11.30;99.90;;;;;;5026636;28;20050;-83
2022/09/28 06:18:56;;;;;;;6.60;1.60;;;11.40;99.90;;;;;;5057709;28;20025;-85
2022/09/28 06:21:36;;;;;;;9.32;3.40;;;11.50;99.90;;;;;;5058612;28;20013;-85
2022/09/28 06:24:03;;;;;;;7.47;4.13;;;11.60;99.90;;;;;;5052021;28;20090;-85
2022/09/28 06:26:29;;;;;;;4.88;1.88;;;11.60;99.90;;;;;;5031296;28;20010;-86
2022/09/28 06:28:54;;;;;;;2.20;1.33;;;11.70;99.90;;;;;;5046075;28;20037;-83
2022/09/28 06:31:22;;;;;;;5.93;1.83;;;11.60;99.90;;;;;;5028177;28;20029;-84
2022/09/28 06:33:49;;;;;;;3.25;1.75;;;11.50;99.90;;;;;;5027998;28;20029;-85
2022/09/28 06:36:17;;;;;;;7.35;1.98;;;11.50;99.90;;;;;;5026314;28;20067;-85
2022/09/28 06:38:42;;;;;;;8.18;2.47;;;11.50;99.90;;;;;;5043167;28;20022;-85
2022/09/28 06:41:10;;;;;;;6.03;1.70;;;11.50;99.90;;;;;;5006652;28;20064;-87
2022/09/28 06:43:38;;;;;;;5.40;1.55;;;11.60;99.90;;;;;;5023961;28;20033;-86
2022/09/28 06:46:23;;;;;;;14.30;6.53;;;11.70;99.90;;;;;;5044258;28;20113;-84
2022/09/28 06:48:49;;;;;;;8.73;2.20;;;11.80;99.90;;;;;;5040792;28;20072;-84
2022/09/28 06:51:35;;;;;;;10.25;3.70;;;11.90;99.90;;;;;;5029652;28;20124;-85
2022/09/28 06:54:24;;;;;;;3.08;2.00;;;11.90;99.90;;;;;;5029852;28;20097;-87
2022/09/28 06:57:10;;;;;;;14.35;7.53;;;11.90;99.90;;;;;;5040646;28;20065;-85
2022/09/28 06:59:37;;;;;;;22.77;8.95;;;12.00;99.90;;;;;;5026339;28;20541;-85
2022/09/28 07:02:03;;;;;;;21.83;8.13;;;12.00;99.90;;;;;;5027947;28;20084;-86
2022/09/28 07:04:42;;;;;;;3.83;1.73;;;12.00;99.90;;;;;;5046923;28;20038;-84
2022/09/28 07:07:11;;;;;;;6.05;2.05;;;12.10;99.90;;;;;;5047557;28;20065;-86
2022/09/28 07:09:55;;;;;;;2.67;1.60;;;12.10;99.90;;;;;;5048083;28;20044;-87
2022/09/28 07:12:39;;;;;;;5.35;1.65;;;12.10;99.90;;;;;;5032114;28;20136;-84
2022/09/28 07:15:26;;;;;;;4.00;1.45;;;12.20;99.90;;;;;;5043471;28;20632;-87
2022/09/28 07:17:59;;;;;;;6.43;2.38;;;12.30;99.90;;;;;;5024998;28;20431;-85
2022/09/28 07:20:26;;;;;;;2.83;1.92;;;12.20;99.90;;;;;;5035978;22;20044;-79
2022/09/28 07:22:53;;;;;;;11.88;2.05;;;12.20;99.90;;;;;;5020654;28;20120;-79
2022/09/28 07:25:22;;;;;;;8.00;2.08;;;12.30;99.90;;;;;;5021087;28;20037;-78
2022/09/28 07:28:11;;;;;;;6.32;1.60;;;12.40;99.90;;;;;;5040221;28;20104;-80
2022/09/28 07:30:56;;;;;;;3.50;1.48;;;12.50;99.90;;;;;;5040156;28;20035;-79
2022/09/28 07:33:42;;;;;;;3.75;1.65;;;12.60;99.90;;;;;;5018546;28;20050;-80
2022/09/28 07:36:35;;;;;;;12.20;6.72;;;12.70;99.90;;;;;;5034498;28;20562;-80
2022/09/28 07:39:02;;;;;;;4.70;2.40;;;12.80;99.90;;;;;;5020301;28;20205;-79
2022/09/28 07:41:31;;;;;;;15.88;3.25;;;12.80;99.90;;;;;;5034258;28;20446;-79
2022/09/28 07:44:04;;;;;;;4.90;2.08;;;12.90;99.90;;;;;;5016436;28;20053;-80
2022/09/28 07:46:33;;;;;;;2.80;1.67;;;12.90;99.90;;;;;;5017775;28;20036;-79
2022/09/28 07:49:04;;;;;;;3.95;2.30;;;13.00;99.90;;;;;;5016505;28;20026;-79
2022/09/28 07:51:55;;;;;;;6.20;2.10;;;13.20;99.90;;;;;;5034902;28;20040;-78
2022/09/28 07:54:26;;;;;;;5.40;1.98;;;13.30;99.90;;;;;;5038648;28;20030;-79
2022/09/28 07:57:08;;;;;;;6.22;2.20;;;13.40;99.90;;;;;;5037934;28;20497;-80
2022/09/28 07:59:52;;;;;;;4.30;2.20;;;13.50;99.90;;;;;;5036264;28;20033;-78
2022/09/28 08:02:41;;;;;;;5.18;2.38;;;13.60;99.90;;;;;;5038522;28;20053;-80
2022/09/28 08:05:08;;;;;;;6.93;3.13;;;13.80;99.90;;;;;;5019800;28;20125;-80
2022/09/28 08:07:37;;;;;;;7.13;3.55;;;13.70;99.90;;;;;;5020269;28;20017;-79
2022/09/28 08:10:06;;;;;;;4.82;2.58;;;13.80;99.90;;;;;;5037008;28;20029;-79
2022/09/28 08:13:10;;;;;;;5.40;2.17;;;13.90;99.90;;;;;;4995502;28;20109;-79
2022/09/28 08:15:58;;;;;;;2.80;1.90;;;14.10;99.90;;;;;;4980120;28;20034;-79
2022/09/28 08:18:32;;;;;;;2.53;1.67;;;14.30;99.90;;;;;;4991733;28;20040;-79
2022/09/28 08:23:42;;;;;;;5.45;2.20;;;14.70;99.90;;;;;;5027946;28;20022;-80
2022/09/28 08:26:08;;;;;;;5.45;2.63;;;14.80;99.90;;;;;;5043834;28;20034;-79
2022/09/28 08:28:34;;;;;;;5.80;2.03;;;14.80;99.90;;;;;;5044209;28;20090;-79
2022/09/28 08:31:13;;;;;;;5.75;3.15;;;14.80;99.90;;;;;;5043599;28;20057;-81
2022/09/28 08:34:05;;;;;;;5.20;3.42;;;14.90;99.90;;;;;;5020454;28;20037;-80
2022/09/28 08:36:56;;;;;;;6.15;3.38;;;14.90;99.90;;;;;;5025814;28;20555;-78
2022/09/28 08:39:40;;;;;;;6.82;3.67;;;14.80;99.90;;;;;;5024101;28;20052;-79
2022/09/28 08:42:39;;;;;;;5.03;3.60;;;14.90;99.90;;;;;;5023252;28;20032;-79
2022/09/28 08:45:30;;;;;;;4.63;3.30;;;15.00;99.90;;;;;;5037321;28;20470;-79
2022/09/28 08:48:47;;;;;;;5.07;3.08;;;15.00;99.90;;;;;;5024474;28;20108;-79
2022/09/28 08:51:34;;;;;;;5.63;3.85;;;14.80;99.90;;;;;;5036356;28;20392;-79
2022/09/28 08:54:32;;;;;;;6.05;3.47;;;14.70;99.90;;;;;;5036892;28;20044;-80
2022/09/28 08:57:20;;;;;;;4.95;3.30;;;15.00;99.90;;;;;;5019605;28;20025;-80
2022/09/28 08:59:50;;;;;;;9.00;3.80;;;15.70;99.90;;;;;;5046020;28;20033;-79
2022/09/28 09:02:32;;;;;;;5.85;3.40;;;16.10;99.90;;;;;;5018447;28;20485;-80
2022/09/28 09:05:18;;;;;;;2.80;2.25;;;16.50;99.90;;;;;;5037126;28;20032;-80
2022/09/28 09:08:13;;;;;;;3.47;2.17;;;17.30;99.90;;;;;;5054283;28;20089;-77
2022/09/28 09:10:48;;;;;;;;;;;17.90;99.90;;;;;;5055380;28;20021;-78
2022/09/28 09:13:40;;;;;;;4.57;1.90;;;17.60;99.90;;;;;;5043435;28;19920;-79
2022/09/28 09:16:36;;;;;;;4.05;2.30;;;17.60;99.90;;;;;;5035867;28;20041;-80
2022/09/28 09:19:51;;;;;;;4.88;2.63;;;18.30;99.90;;;;;;5028905;28;20030;-80
2022/09/28 09:22:47;;;;;;;2.00;1.70;;;20.00;99.90;;;;;;5041273;28;20061;-79
2022/09/28 09:25:24;;;;;;;4.60;2.08;;;21.00;99.90;;;;;;5019349;28;20068;-81
2022/09/28 09:28:06;;;;;;;5.38;2.58;;;20.90;99.90;;;;;;5035760;28;20111;-78
2022/09/28 09:31:11;;;;;;;4.90;1.80;;;21.00;99.90;;;;;;5035487;28;20037;-78
2022/09/28 09:34:05;;;;;;;2.33;1.60;;;20.60;99.90;;;;;;5018383;28;20061;-79
2022/09/28 09:37:02;;;;;;;2.45;1.73;;;21.10;99.60;;;;;;5021981;28;20033;-81
2022/09/28 09:40:24;;;;;;;2.65;1.58;;;20.50;99.50;;;;;;5037623;28;20529;-79
2022/09/28 09:43:37;;;;;;;3.78;1.95;;;20.10;99.90;;;;;;5039128;28;20045;-79
2022/09/28 09:46:33;;;;;;;8.40;1.67;;;20.50;99.80;;;;;;5039063;28;20101;-80
2022/09/28 09:49:20;;;;;;;5.30;1.77;;;21.90;98.70;;;;;;5038217;28;20128;-81
2022/09/28 09:52:15;;;;;;;5.78;2.33;;;23.60;96.60;;;;;;5040487;28;20029;-79
2022/09/28 09:55:00;;;;;;;5.93;2.65;;;24.00;95.50;;;;;;5041298;28;20485;-77
2022/09/28 09:57:50;;;;;;;4.55;2.13;;;25.10;93.80;;;;;;5039562;28;20037;-78
2022/09/28 10:00:30;;;;;;;3.38;2.10;;;25.50;92.70;;;;;;5036022;28;20029;-79
2022/09/28 10:03:31;;;;;;;4.22;1.67;;;26.40;92.10;;;;;;5036471;28;20037;-80
2022/09/28 10:06:20;;;;;;;;;;;27.80;90.00;;;;;;5037116;28;20504;-81
2022/09/28 10:08:51;;;;;;;2.13;1.30;;;27.20;88.40;;;;;;5036410;28;20416;-81
2022/09/28 10:11:25;;;;;;;1.92;1.00;;;29.10;83.40;;;;;;5036473;28;20025;-79
2022/09/28 10:13:54;;;;;;;3.38;1.30;;;29.00;80.70;;;;;;4989276;28;20519;-79
2022/09/28 10:16:40;;;;;;;1.65;0.80;;;29.30;79.50;;;;;;5039745;28;20052;-82
2022/09/28 10:19:15;;;;;;;4.43;0.90;;;28.90;78.00;;;;;;5036886;28;20025;-80
2022/09/28 10:22:05;;;;;;;1.80;1.08;;;28.80;76.20;;;;;;5036859;28;20071;-79
2022/09/28 10:24:40;;;;;;;4.32;1.25;;;26.90;77.90;;;;;;5047127;28;20020;-78
2022/09/28 10:27:13;;;;;;;1.40;1.15;;;26.10;79.70;;;;;;5036686;28;20028;-80
2022/09/28 10:29:56;;;;;;;1.10;0.70;;;25.60;79.30;;;;;;5038576;28;20056;-81
2022/09/28 10:32:24;;;;;;;2.45;0.80;;;24.70;81.50;;;;;;5037851;28;20116;-81
2022/09/28 10:35:13;;;;;;;0.52;0.52;;;23.70;80.30;;;;;;5018460;28;20060;-81
2022/09/28 10:38:14;;;;;;;2.65;0.90;;;22.80;82.40;;;;;;5019193;28;20026;-81
2022/09/28 10:40:48;;;;;;;1.95;1.02;;;21.90;84.60;;;;;;5037347;28;20037;-81
2022/09/28 10:43:29;;;;;;;0.75;0.60;;;21.40;85.90;;;;;;5035662;28;20039;-81
2022/09/28 10:46:12;;;;;;;1.30;0.70;;;21.00;87.60;;;;;;5036392;28;20052;-80
2022/09/28 10:49:04;;;;;;;9.73;0.82;;;20.40;88.70;;;;;;5035824;28;20029;-81
2022/09/28 10:51:50;;;;;;;2.30;0.90;;;20.20;90.00;;;;;;5027201;28;20117;-80
2022/09/28 10:54:35;;;;;;;0.65;0.50;;;20.20;89.70;;;;;;5024432;28;20053;-79
2022/09/28 10:57:01;;;;;;;0.63;0.63;;;20.30;89.80;;;;;;5021197;28;20696;-79
2022/09/28 10:59:39;;;;;;;1.20;0.75;;;20.10;90.40;;;;;;5035643;28;20169;-81
2022/09/28 11:02:51;;;;;;;2.67;0.70;;;20.00;90.50;;;;;;5036299;28;20044;-81
2022/09/28 11:05:26;;;;;;;2.83;0.90;;;19.90;90.80;;;;;;5018926;28;20092;-80
2022/09/28 11:07:56;;;;;;;2.17;0.73;;;20.00;90.80;;;;;;5018816;28;20076;-81
2022/09/28 11:10:31;;;;;;;1.90;0.60;;;20.00;91.10;;;;;;5019364;28;20116;-80
2022/09/28 11:13:08;;;;;;;1.75;0.73;;;20.20;91.00;;;;;;5019604;28;20038;-80
2022/09/28 11:15:41;;;;;;;1.58;1.00;;;20.20;90.80;;;;;;5018031;28;20021;-80
2022/09/28 11:18:30;;;;;;;2.45;1.00;;;20.00;91.20;;;;;;5018091;28;20021;-80
2022/09/28 11:21:12;;;;;;;4.85;0.93;;;19.80;91.60;;;;;;5016931;28;20124;-80
2022/09/28 11:23:41;;;;;;;3.03;0.85;;;20.00;91.50;;;;;;5018145;28;20033;-79
2022/09/28 11:26:19;;;;;;;4.00;1.10;;;19.90;91.80;;;;;;5005013;28;20125;-80
2022/09/28 11:28:51;;;;;;;3.03;0.80;;;19.80;92.30;;;;;;5021600;28;20025;-79
2022/09/28 11:31:27;;;;;;;2.53;0.80;;;19.90;92.50;;;;;;5021667;28;20512;-82
2022/09/28 11:34:13;;;;;;;2.30;0.90;;;20.00;92.50;;;;;;5022157;28;20494;-80
2022/09/28 11:37:18;;;;;;;2.63;0.97;;;19.90;92.30;;;;;;5027026;28;20030;-80
2022/09/28 11:40:04;;;;;;;2.35;0.80;;;19.70;92.40;;;;;;5027974;28;20028;-80
2022/09/28 11:43:07;;;;;;;2.17;0.80;;;19.90;92.70;;;;;;5029159;28;20018;-80
2022/09/28 11:45:39;;;;;;;4.07;1.02;;;21.20;91.20;;;;;;5025033;28;20033;-77
2022/09/28 11:48:14;;;;;;;1.77;0.90;;;22.40;90.20;;;;;;5048401;28;20030;-79
2022/09/28 11:51:04;;;;;;;8.05;0.80;;;23.40;88.50;;;;;;5032631;28;20036;-80
2022/09/28 11:53:41;;;;;;;3.03;0.90;;;23.20;86.40;;;;;;5050649;28;20120;-80
2022/09/28 11:56:25;;;;;;;0.73;0.70;;;22.60;88.10;;;;;;5048063;28;20075;-78
2022/09/28 11:59:04;;;;;;;1.13;0.90;;;22.20;88.80;;;;;;5031222;28;20021;-78
2022/09/28 12:01:45;;;;;;;1.42;0.90;;;21.60;90.30;;;;;;5031416;28;20045;-78
2022/09/28 12:04:36;;;;;;;1.95;0.93;;;21.40;90.80;;;;;;5030637;28;20041;-79
2022/09/28 12:07:31;;;;;;;3.05;1.33;;;20.90;91.40;;;;;;5021682;28;20030;-80
2022/09/28 12:09:59;;;;;;;3.58;1.20;;;20.60;92.00;;;;;;5040821;28;20056;-81
2022/09/28 12:12:37;;;;;;;6.50;1.02;;;20.70;92.30;;;;;;5024719;28;20026;-78
2022/09/28 12:15:27;;;;;;;1.35;0.85;;;20.60;92.40;;;;;;5023859;28;20030;-81
2022/09/28 12:18:12;;;;;;;3.83;1.20;;;20.60;92.40;;;;;;5038820;28;20037;-83
2022/09/28 12:20:40;;;;;;;;;;;20.70;92.30;;;;;;5039039;28;20034;-80
2022/09/28 12:23:30;;;;;;;3.42;1.38;;;20.70;92.30;;;;;;5039834;28;19909;-80
2022/09/28 12:26:03;;;;;;;4.85;0.98;;;20.50;92.60;;;;;;5040462;28;20040;-80
2022/09/28 12:28:44;;;;;;;1.85;1.02;;;20.30;93.00;;;;;;5040670;28;20033;-81
2022/09/28 12:31:42;;;;;;;3.65;1.35;;;20.00;93.00;;;;;;5024917;28;20105;-81
2022/09/28 12:34:09;;;;;;;3.88;1.00;;;19.70;93.30;;;;;;4994296;28;20099;-79
2022/09/28 12:36:57;;;;;;;1.77;0.90;;;19.30;93.60;;;;;;5038761;28;20076;-80
2022/09/28 12:39:30;;;;;;;5.00;1.00;;;19.20;93.70;;;;;;5038320;28;20481;-82
2022/09/28 12:42:27;;;;;;;1.70;1.00;;;19.40;93.80;;;;;;5040612;28;20041;-79
2022/09/28 12:45:02;;;;;;;1.58;0.77;;;20.20;93.20;;;;;;5040558;28;20109;-83
2022/09/28 12:47:47;;;;;;;;;;;21.60;91.40;;;;;;5043710;28;20047;-79
2022/09/28 12:50:38;;;;;;;2.60;1.33;;;21.70;91.40;;;;;;5040779;28;19909;-84
2022/09/28 12:53:31;;;;;;;1.10;1.00;;;21.50;91.50;;;;;;5036250;28;20052;-80
2022/09/28 12:56:10;;;;;;;2.28;1.00;;;21.20;91.90;;;;;;5033197;28;20049;-82
2022/09/28 12:58:58;;;;;;;1.92;1.02;;;20.80;92.30;;;;;;5041929;28;20085;-81
2022/09/28 13:01:30;;;;;;;1.40;1.27;;;20.60;92.90;;;;;;5034602;28;20027;-81
2022/09/28 13:04:31;;;;;;;1.90;1.20;;;20.40;93.00;;;;;;5037948;28;20116;-81
2022/09/28 13:07:02;;;;;;;2.33;1.10;;;20.30;93.00;;;;;;5037583;28;20040;-81
2022/09/28 13:09:56;;;;;;;4.88;1.23;;;21.40;92.30;;;;;;5038996;28;20033;-80
2022/09/28 13:12:54;;;;;;;1.70;1.00;;;23.20;90.70;;;;;;5045036;28;20025;-80
2022/09/28 13:15:30;;;;;;;8.57;1.75;;;24.80;86.80;;;;;;5022444;28;20648;-84
2022/09/28 13:18:02;;;;;;;10.73;1.20;;;25.70;84.60;;;;;;5033691;28;20047;-80
2022/09/28 13:20:39;;;;;;;4.32;1.20;;;25.90;83.80;;;;;;5066291;22;20045;-84
2022/09/28 13:23:20;;;;;;;2.03;1.38;;;25.20;83.70;;;;;;5066094;28;20033;-84
2022/09/28 13:26:12;;;;;;;1.70;1.30;;;24.60;84.80;;;;;;5063921;28;20032;-83
2022/09/28 13:28:40;;;;;;;4.18;1.45;;;24.00;86.50;;;;;;5003932;28;20048;-84
2022/09/28 13:31:08;;;;;;;2.55;1.92;;;23.70;86.40;;;;;;5067271;28;20052;-85
2022/09/28 13:33:43;;;;;;;1.35;1.10;;;23.70;86.90;;;;;;5047552;28;20083;-84
2022/09/28 13:36:25;;;;;;;1.70;1.00;;;23.30;86.30;;;;;;5051887;28;20028;-85
2022/09/28 13:38:52;;;;;;;3.13;1.17;;;23.40;86.80;;;;;;5064391;28;20040;-85
2022/09/28 13:41:27;;;;;;;3.65;1.20;;;23.10;87.30;;;;;;5060338;28;20017;-85
2022/09/28 13:44:12;;;;;;;3.40;1.20;;;22.80;88.00;;;;;;5057855;28;20353;-86
2022/09/28 13:46:46;;;;;;;5.60;1.47;;;22.30;89.60;;;;;;5070912;28;20124;-85